Time;durP1;ratioP1;P1;durP2;ratioP2;P2;SDS_P1;SDS_P2;PMS_P1;PMS_P2;Temp;Humidity;BMP_temperature;BMP_pressure;BME280_temperature;BME280_humidity;BME280_pressure;Samples;Min_cycle;Max_cycle;Signal;HPM_P1;HPM_P2
2024/03/06 00:01:01;;;;;;;17.00;13.23;;;10.00;62.70;11.80;101590.00;;;;5015202;28;20266;-76
2024/03/06 00:03:28;;;;;;;14.85;11.15;;;10.00;62.90;11.80;101593.00;;;;5014628;28;20199;-76
2024/03/06 00:05:55;;;;;;;14.63;11.93;;;9.90;62.80;11.70;101597.00;;;;5012689;28;20291;-76
2024/03/06 00:08:27;;;;;;;16.52;12.27;;;9.90;62.90;11.60;101603.00;;;;5014016;28;20219;-76
2024/03/06 00:10:54;;;;;;;15.60;11.90;;;9.90;62.90;11.60;101603.00;;;;5017765;28;20733;-76
2024/03/06 00:13:22;;;;;;;14.65;11.95;;;9.80;62.90;11.60;101604.00;;;;5014547;28;20208;-76
2024/03/06 00:15:49;;;;;;;15.85;12.25;;;9.80;62.90;11.60;101595.00;;;;4998599;28;20288;-76
2024/03/06 00:18:16;;;;;;;15.52;12.32;;;9.70;62.90;11.50;101606.00;;;;5005566;28;20641;-75
2024/03/06 00:20:44;;;;;;;16.27;11.55;;;9.70;63.00;11.50;101599.00;;;;5014599;28;20765;-75
2024/03/06 00:23:11;;;;;;;15.32;10.77;;;9.70;63.10;11.50;101606.00;;;;5014756;28;20198;-75
2024/03/06 00:25:40;;;;;;;13.75;10.75;;;9.60;63.10;11.40;101606.00;;;;5014472;28;20204;-76
2024/03/06 00:28:07;;;;;;;11.52;9.65;;;9.60;63.10;11.40;101614.00;;;;5020240;28;20243;-76
2024/03/06 00:30:34;;;;;;;13.32;9.60;;;9.60;63.20;11.40;101613.00;;;;5015276;28;20221;-75
2024/03/06 00:33:01;;;;;;;11.88;9.63;;;9.50;63.20;11.30;101604.00;;;;5014640;28;20201;-76
2024/03/06 00:35:29;;;;;;;12.05;9.13;;;9.50;63.10;11.20;101609.00;;;;5001393;28;20751;-75
2024/03/06 00:37:56;;;;;;;12.57;9.18;;;9.40;63.00;11.20;101618.00;;;;5009315;28;20562;-76
2024/03/06 00:40:23;;;;;;;12.07;8.88;;;9.40;63.10;11.20;101608.00;;;;5013381;28;20252;-76
2024/03/06 00:42:52;;;;;;;12.50;9.25;;;9.40;63.10;11.10;101617.00;;;;5014829;28;20224;-75
2024/03/06 00:45:20;;;;;;;11.73;8.65;;;9.30;63.10;11.10;101616.00;;;;5012395;28;20205;-76
2024/03/06 00:47:47;;;;;;;11.70;9.75;;;9.30;63.20;11.10;101618.00;;;;5008195;28;20194;-76
2024/03/06 00:50:16;;;;;;;10.50;7.80;;;9.30;63.30;11.10;101612.00;;;;5006402;28;20288;-76
2024/03/06 00:52:43;;;;;;;10.55;8.48;;;9.20;63.20;11.00;101618.00;;;;5014094;28;20201;-76
2024/03/06 00:55:10;;;;;;;10.20;7.55;;;9.20;63.20;11.00;101623.00;;;;5010586;28;20204;-75
2024/03/06 00:57:38;;;;;;;9.68;6.85;;;9.20;63.20;11.00;101628.00;;;;5014521;28;20201;-76
2024/03/06 01:00:10;;;;;;;10.38;8.32;;;9.10;63.20;10.90;101625.00;;;;5014026;28;20204;-75
2024/03/06 01:02:37;;;;;;;10.25;7.32;;;9.10;63.30;10.90;101632.00;;;;5018922;28;20296;-76
2024/03/06 01:05:06;;;;;;;10.43;7.82;;;9.10;63.30;10.90;101639.00;;;;5013559;28;20213;-76
2024/03/06 01:07:34;;;;;;;11.75;8.23;;;9.10;64.10;10.90;101643.00;;;;5014113;28;20205;-76
2024/03/06 01:10:02;;;;;;;9.57;7.78;;;9.00;63.60;10.90;101641.00;;;;5013664;28;20546;-75
2024/03/06 01:12:29;;;;;;;13.93;9.05;;;9.10;63.90;11.00;101642.00;;;;5011270;28;20201;-75
2024/03/06 01:14:57;;;;;;;9.00;7.65;;;9.10;64.00;11.00;101636.00;;;;5007731;28;20201;-75
2024/03/06 01:17:26;;;;;;;9.88;7.65;;;9.10;64.10;11.00;101650.00;;;;5003280;28;20228;-75
2024/03/06 01:19:53;;;;;;;10.48;8.48;;;9.10;64.10;11.10;101647.00;;;;5014132;28;20288;-75
2024/03/06 01:22:20;;;;;;;8.55;7.55;;;9.10;64.20;11.10;101649.00;;;;5005864;28;20351;-75
2024/03/06 01:24:48;;;;;;;11.35;8.00;;;9.20;64.30;11.10;101648.00;;;;5000892;28;20615;-76
2024/03/06 01:27:17;;;;;;;8.35;7.22;;;9.20;64.50;11.10;101653.00;;;;4994362;28;20201;-76
2024/03/06 01:29:44;;;;;;;8.77;7.38;;;9.20;64.50;11.20;101661.00;;;;5009112;28;20275;-76
2024/03/06 01:32:11;;;;;;;9.25;7.53;;;9.30;64.60;11.20;101664.00;;;;5013954;28;20224;-75
2024/03/06 01:34:40;;;;;;;9.10;7.60;;;9.30;64.60;11.20;101647.00;;;;5010488;28;20307;-76
2024/03/06 01:37:07;;;;;;;10.15;8.70;;;9.30;64.60;11.30;101654.00;;;;5011045;28;20741;-75
2024/03/06 01:39:35;;;;;;;9.95;8.00;;;9.40;64.60;11.30;101665.00;;;;5013488;28;20331;-75
2024/03/06 01:42:03;;;;;;;12.00;8.77;;;9.40;64.50;11.30;101654.00;;;;5013152;28;20225;-76
2024/03/06 01:44:30;;;;;;;14.38;9.85;;;9.40;64.40;11.30;101653.00;;;;5012465;28;20205;-75
2024/03/06 01:46:57;;;;;;;12.38;8.77;;;9.40;64.30;11.30;101656.00;;;;5009572;28;20660;-76
2024/03/06 01:49:27;;;;;;;12.50;9.20;;;9.40;64.20;11.30;101656.00;;;;5011536;28;20201;-76
2024/03/06 01:51:59;;;;;;;12.00;9.75;;;9.40;64.20;11.30;101652.00;;;;5012048;28;20205;-76
2024/03/06 01:54:27;;;;;;;13.50;10.02;;;9.40;64.20;11.30;101656.00;;;;5013911;28;20255;-76
2024/03/06 01:56:56;;;;;;;13.98;9.60;;;9.40;64.10;11.30;101661.00;;;;5007639;28;20293;-76
2024/03/06 01:59:26;;;;;;;13.18;9.38;;;9.40;64.10;11.20;101659.00;;;;5010519;28;20276;-76
2024/03/06 02:01:55;;;;;;;12.35;9.35;;;9.40;64.00;11.20;101658.00;;;;5012701;28;20228;-76
2024/03/06 02:04:23;;;;;;;14.35;10.23;;;9.40;64.00;11.20;101661.00;;;;5012980;28;20700;-76
2024/03/06 02:06:50;;;;;;;11.13;9.15;;;9.40;63.90;11.20;101669.00;;;;5011889;28;20303;-76
2024/03/06 02:09:19;;;;;;;11.60;9.77;;;9.40;64.00;11.20;101671.00;;;;5012096;28;20221;-76
2024/03/06 02:11:46;;;;;;;13.57;9.45;;;9.40;64.00;11.20;101669.00;;;;5008579;28;20288;-76
2024/03/06 02:14:14;;;;;;;12.75;9.52;;;9.30;64.00;11.20;101673.00;;;;4993715;28;20292;-76
2024/03/06 02:16:41;;;;;;;12.07;9.35;;;9.30;64.00;11.20;101667.00;;;;4998632;28;20193;-76
2024/03/06 02:19:09;;;;;;;13.18;9.73;;;9.30;64.00;11.20;101666.00;;;;5005911;28;20292;-75
2024/03/06 02:21:38;;;;;;;15.65;11.02;;;9.30;64.00;11.20;101668.00;;;;5012324;28;20251;-75
2024/03/06 02:24:06;;;;;;;11.60;9.05;;;9.30;63.90;11.20;101671.00;;;;5011190;28;20205;-75
2024/03/06 02:26:33;;;;;;;12.75;9.73;;;9.30;64.00;11.20;101679.00;;;;5013503;28;20670;-75
2024/03/06 02:29:00;;;;;;;12.77;10.20;;;9.30;64.00;11.10;101676.00;;;;5017348;28;20224;-76
2024/03/06 02:31:27;;;;;;;12.95;9.38;;;9.20;64.00;11.10;101678.00;;;;5012453;28;20232;-76
2024/03/06 02:33:55;;;;;;;12.40;9.35;;;9.20;64.00;11.10;101682.00;;;;5011174;28;20201;-76
2024/03/06 02:36:22;;;;;;;12.45;9.48;;;9.30;64.00;11.10;101679.00;;;;5010745;28;20288;-76
2024/03/06 02:38:50;;;;;;;14.20;10.55;;;9.20;64.00;11.10;101675.00;;;;5011441;28;20569;-76
2024/03/06 02:41:17;;;;;;;13.63;9.80;;;9.20;64.00;11.10;101674.00;;;;5011541;28;20282;-76
2024/03/06 02:43:44;;;;;;;13.43;9.98;;;9.20;64.00;11.10;101678.00;;;;5015093;28;20287;-76
2024/03/06 02:46:11;;;;;;;15.43;11.25;;;9.20;64.00;11.00;101679.00;;;;5031896;28;20845;-76
2024/03/06 02:48:39;;;;;;;15.18;11.30;;;9.20;63.80;11.00;101678.00;;;;5015647;28;20749;-76
2024/03/06 02:51:06;;;;;;;13.38;10.25;;;9.20;63.80;11.00;101672.00;;;;5011135;28;20721;-76
2024/03/06 02:53:33;;;;;;;17.75;12.48;;;9.10;63.80;10.90;101673.00;;;;5011907;28;20625;-77
2024/03/06 02:56:01;;;;;;;15.60;11.25;;;9.10;63.80;10.90;101672.00;;;;5012702;28;20197;-76
2024/03/06 02:58:31;;;;;;;15.32;12.13;;;9.10;63.80;10.90;101672.00;;;;5011696;28;20280;-76
2024/03/06 03:00:58;;;;;;;16.17;11.85;;;9.00;63.70;10.80;101673.00;;;;5013210;28;20647;-76
2024/03/06 03:03:26;;;;;;;14.43;11.13;;;9.00;64.30;10.90;101674.00;;;;5012325;28;20244;-75
2024/03/06 03:05:53;;;;;;;15.60;11.18;;;9.00;63.60;10.80;101676.00;;;;4991013;28;20237;-76
2024/03/06 03:08:20;;;;;;;14.93;11.30;;;9.00;63.70;10.70;101676.00;;;;4993818;28;20244;-75
2024/03/06 03:10:47;;;;;;;14.23;11.15;;;8.90;63.60;10.70;101679.00;;;;5011649;28;20284;-75
2024/03/06 03:13:16;;;;;;;17.60;11.50;;;8.90;63.70;10.70;101667.00;;;;5011269;28;20228;-75
2024/03/06 03:15:43;;;;;;;15.00;11.50;;;8.90;63.70;10.70;101678.00;;;;5011097;28;20714;-75
2024/03/06 03:18:10;;;;;;;15.23;11.40;;;8.80;63.70;10.70;101672.00;;;;5012162;28;20678;-75
2024/03/06 03:20:38;;;;;;;13.68;10.98;;;8.80;63.70;10.60;101671.00;;;;5011801;28;20304;-75
2024/03/06 03:23:06;;;;;;;16.77;11.15;;;8.80;63.70;10.60;101689.00;;;;5011539;28;20314;-75
2024/03/06 03:25:33;;;;;;;16.02;11.90;;;8.70;63.60;10.60;101682.00;;;;5009411;28;20251;-75
2024/03/06 03:28:01;;;;;;;16.75;12.48;;;8.70;63.60;10.50;101689.00;;;;5011503;28;20197;-75
2024/03/06 03:30:30;;;;;;;15.10;11.70;;;8.70;63.70;10.50;101689.00;;;;5007628;28;20617;-74
2024/03/06 03:32:57;;;;;;;16.35;11.80;;;8.60;63.60;10.50;101692.00;;;;5011867;28;20299;-75
2024/03/06 03:35:25;;;;;;;15.82;11.55;;;8.60;63.60;10.50;101688.00;;;;5017239;28;20279;-75
2024/03/06 03:37:52;;;;;;;15.68;11.50;;;8.60;63.70;10.40;101681.00;;;;5007970;28;20279;-75
2024/03/06 03:40:19;;;;;;;13.93;12.07;;;8.60;63.70;10.40;101685.00;;;;5006105;28;20236;-75
2024/03/06 03:42:47;;;;;;;15.57;11.82;;;8.60;63.80;10.40;101688.00;;;;4991829;28;20263;-75
2024/03/06 03:45:14;;;;;;;15.93;11.75;;;8.50;63.80;10.40;101695.00;;;;5006419;28;20207;-75
2024/03/06 03:47:43;;;;;;;16.40;12.80;;;8.50;63.70;10.30;101692.00;;;;5011027;28;20284;-75
2024/03/06 03:50:10;;;;;;;15.85;11.68;;;8.50;63.70;10.30;101699.00;;;;5011560;28;20207;-75
2024/03/06 03:52:41;;;;;;;16.70;11.70;;;8.50;63.80;10.30;101699.00;;;;5011658;28;20284;-75
2024/03/06 03:55:08;;;;;;;18.30;12.93;;;8.40;63.80;10.30;101703.00;;;;5010930;28;20216;-75
2024/03/06 03:57:36;;;;;;;17.08;12.13;;;8.40;63.90;10.20;101706.00;;;;5010732;28;20275;-75
2024/03/06 04:00:10;;;;;;;15.57;11.20;;;8.40;63.90;10.20;101705.00;;;;5009566;28;20201;-75
2024/03/06 04:02:38;;;;;;;16.05;11.45;;;8.40;63.80;10.20;101701.00;;;;5006109;28;20309;-75
2024/03/06 04:05:09;;;;;;;16.98;12.23;;;8.40;63.90;10.20;101702.00;;;;5011079;28;20288;-75
2024/03/06 04:07:37;;;;;;;14.50;11.25;;;8.30;63.80;10.20;101699.00;;;;5010369;28;20209;-74
2024/03/06 04:10:05;;;;;;;15.18;11.50;;;8.30;63.80;10.10;101693.00;;;;5024402;28;20696;-75
2024/03/06 04:12:32;;;;;;;16.45;12.27;;;8.30;63.90;10.10;101699.00;;;;5018702;28;20203;-75
2024/03/06 04:14:59;;;;;;;15.32;11.27;;;8.30;63.90;10.10;101707.00;;;;5010564;28;20735;-75
2024/03/06 04:17:26;;;;;;;17.15;12.82;;;8.20;63.90;10.10;101704.00;;;;5010676;28;20280;-75
2024/03/06 04:19:55;;;;;;;16.98;13.50;;;8.20;63.90;10.10;101705.00;;;;5011374;28;20223;-75
2024/03/06 04:22:23;;;;;;;18.50;14.73;;;8.20;64.00;10.00;101703.00;;;;5009842;28;20303;-75
2024/03/06 04:24:51;;;;;;;19.30;13.63;;;8.20;64.00;10.00;101704.00;;;;5009260;28;20707;-75
2024/03/06 04:27:18;;;;;;;20.73;13.77;;;8.20;64.00;10.00;101705.00;;;;5008901;28;20628;-75
2024/03/06 04:29:45;;;;;;;21.10;14.10;;;8.20;64.10;10.00;101706.00;;;;5010267;28;20289;-75
2024/03/06 04:32:12;;;;;;;19.80;15.10;;;8.20;64.10;10.00;101712.00;;;;5010991;28;20286;-75
2024/03/06 04:34:39;;;;;;;18.48;14.43;;;8.20;64.20;10.00;101719.00;;;;5006172;28;20284;-75
2024/03/06 04:37:07;;;;;;;19.08;13.85;;;8.20;64.30;10.00;101715.00;;;;5005765;28;20359;-75
2024/03/06 04:39:35;;;;;;;21.17;14.60;;;8.20;64.30;10.00;101718.00;;;;5009824;28;20229;-75
2024/03/06 04:42:02;;;;;;;18.42;13.82;;;8.20;64.30;10.00;101716.00;;;;5011040;28;20315;-75
2024/03/06 04:44:29;;;;;;;19.52;14.82;;;8.20;64.40;10.00;101725.00;;;;5014549;28;20200;-75
2024/03/06 04:46:56;;;;;;;18.35;14.52;;;8.20;64.40;10.00;101729.00;;;;5013286;28;20284;-76
2024/03/06 04:49:23;;;;;;;21.17;14.18;;;8.10;64.30;10.00;101735.00;;;;5013620;28;20251;-75
2024/03/06 04:51:50;;;;;;;19.63;14.85;;;8.20;64.40;10.00;101732.00;;;;5016666;28;20201;-76
2024/03/06 04:54:17;;;;;;;19.52;14.73;;;8.20;64.50;10.00;101731.00;;;;5017471;28;20211;-75
2024/03/06 04:56:46;;;;;;;20.15;14.65;;;8.10;64.50;10.00;101732.00;;;;5016499;28;20236;-75
2024/03/06 04:59:13;;;;;;;21.63;14.85;;;8.10;64.40;10.00;101734.00;;;;5017375;28;20296;-75
2024/03/06 05:01:41;;;;;;;20.63;15.38;;;8.10;65.00;10.00;101745.00;;;;5018510;28;20193;-75
2024/03/06 05:04:08;;;;;;;19.20;14.77;;;8.10;64.30;10.00;101739.00;;;;5014762;28;20231;-75
2024/03/06 05:06:35;;;;;;;20.85;14.88;;;8.10;64.40;9.90;101742.00;;;;5013570;28;20259;-75
2024/03/06 05:09:04;;;;;;;22.45;15.45;;;8.10;64.30;9.90;101742.00;;;;5013546;28;20208;-75
2024/03/06 05:11:31;;;;;;;17.63;13.45;;;8.10;64.30;9.90;101738.00;;;;5013543;28;20263;-75
2024/03/06 05:14:01;;;;;;;20.38;14.13;;;8.10;64.20;9.90;101739.00;;;;5013412;28;20266;-76
2024/03/06 05:16:28;;;;;;;18.90;14.35;;;8.00;64.20;9.90;101749.00;;;;5013251;28;20666;-76
2024/03/06 05:18:55;;;;;;;16.42;13.00;;;8.00;64.20;9.90;101745.00;;;;5013627;28;20730;-76
2024/03/06 05:21:23;;;;;;;16.08;12.10;;;8.00;64.20;9.80;101750.00;;;;5005068;28;20212;-76
2024/03/06 05:23:50;;;;;;;18.30;12.90;;;8.00;64.20;9.80;101751.00;;;;5001856;28;20216;-77
2024/03/06 05:26:17;;;;;;;18.80;13.32;;;8.00;64.10;9.80;101758.00;;;;5013541;28;20718;-77
2024/03/06 05:28:44;;;;;;;15.48;12.23;;;8.00;64.10;9.80;101754.00;;;;5013854;28;20659;-76
2024/03/06 05:31:20;;;;;;;18.42;12.98;;;7.90;64.10;9.70;101762.00;;;;5012868;28;20227;-77
2024/03/06 05:33:49;;;;;;;16.17;13.05;;;7.90;64.20;9.70;101763.00;;;;5015038;28;20286;-76
2024/03/06 05:36:17;;;;;;;16.55;12.07;;;7.90;64.20;9.70;101762.00;;;;5013646;28;20189;-76
2024/03/06 05:38:44;;;;;;;17.30;13.23;;;7.90;64.30;9.70;101766.00;;;;5012865;28;20197;-76
2024/03/06 05:41:12;;;;;;;15.57;12.50;;;7.80;64.10;9.70;101776.00;;;;5013168;28;20227;-77
2024/03/06 05:43:40;;;;;;;17.10;13.55;;;7.80;64.10;9.70;101769.00;;;;5013234;28;20312;-77
2024/03/06 05:46:08;;;;;;;20.15;14.60;;;7.80;64.10;9.70;101775.00;;;;5012307;28;20583;-76
2024/03/06 05:48:36;;;;;;;19.20;14.65;;;7.80;64.10;9.60;101776.00;;;;5012827;28;20279;-76
2024/03/06 05:51:04;;;;;;;21.48;15.60;;;7.80;64.10;9.60;101785.00;;;;5008386;28;20646;-76
2024/03/06 05:53:32;;;;;;;20.75;14.70;;;7.80;64.30;9.60;101782.00;;;;5005711;28;20193;-77
2024/03/06 05:55:59;;;;;;;20.90;15.45;;;7.80;64.40;9.60;101793.00;;;;5013305;28;20201;-76
2024/03/06 05:58:26;;;;;;;20.25;16.02;;;7.70;64.40;9.60;101792.00;;;;5012491;28;20283;-77
2024/03/06 06:00:53;;;;;;;20.92;14.70;;;7.70;64.50;9.50;101789.00;;;;5007991;28;20225;-76
2024/03/06 06:03:20;;;;;;;20.65;15.20;;;7.70;64.40;9.50;101803.00;;;;5004773;28;20308;-77
2024/03/06 06:05:51;;;;;;;17.42;13.55;;;7.70;64.40;9.50;101801.00;;;;5003059;28;20298;-75
2024/03/06 06:08:18;;;;;;;19.75;13.60;;;7.70;64.40;9.50;101802.00;;;;5007635;28;20213;-76
2024/03/06 06:10:45;;;;;;;18.90;12.93;;;7.70;64.30;9.50;101817.00;;;;5010530;28;20280;-77
2024/03/06 06:13:13;;;;;;;17.45;13.07;;;7.70;64.30;9.50;101811.00;;;;5011284;28;20384;-76
2024/03/06 06:15:40;;;;;;;15.77;11.73;;;7.60;64.20;9.50;101822.00;;;;5009146;28;20289;-76
2024/03/06 06:18:07;;;;;;;16.00;11.93;;;7.60;64.20;9.50;101828.00;;;;5007105;28;20200;-76
2024/03/06 06:20:34;;;;;;;16.38;11.30;;;7.60;64.30;9.50;101823.00;;;;5012792;28;20229;-76
2024/03/06 06:23:03;;;;;;;15.60;11.88;;;7.60;64.40;9.50;101823.00;;;;5012920;28;20239;-77
2024/03/06 06:25:30;;;;;;;13.60;11.10;;;7.60;64.40;9.50;101829.00;;;;5012215;28;20443;-76
2024/03/06 06:27:59;;;;;;;16.00;12.50;;;7.60;64.50;9.50;101830.00;;;;5012548;28;20295;-76
2024/03/06 06:30:26;;;;;;;21.27;13.02;;;7.60;64.60;9.50;101839.00;;;;5012428;28;20193;-76
2024/03/06 06:32:53;;;;;;;19.25;12.80;;;7.60;64.70;9.50;101834.00;;;;5011737;28;20205;-77
2024/03/06 06:35:22;;;;;;;20.95;13.88;;;7.60;64.80;9.60;101838.00;;;;5012076;28;20209;-76
2024/03/06 06:37:49;;;;;;;26.92;15.38;;;7.60;65.00;9.60;101839.00;;;;5001428;28;20707;-76
2024/03/06 06:40:19;;;;;;;36.83;15.40;;;7.60;65.10;9.60;101844.00;;;;5010299;28;20235;-76
2024/03/06 06:42:50;;;;;;;21.83;15.13;;;7.60;65.20;9.70;101847.00;;;;5012367;28;20709;-76
2024/03/06 06:45:17;;;;;;;27.25;15.80;;;7.70;65.30;9.70;101856.00;;;;5012125;28;20647;-77
2024/03/06 06:47:45;;;;;;;19.80;14.32;;;7.70;65.40;9.70;101859.00;;;;5010352;28;20287;-77
2024/03/06 06:50:13;;;;;;;25.65;14.57;;;7.70;65.50;9.80;101877.00;;;;5008066;28;20209;-76
2024/03/06 06:52:40;;;;;;;24.88;14.68;;;7.80;65.60;9.80;101875.00;;;;5009709;28;20280;-76
2024/03/06 06:55:09;;;;;;;36.30;13.77;;;7.80;65.70;9.90;101881.00;;;;5011896;28;20288;-74
2024/03/06 06:57:38;;;;;;;22.83;13.68;;;7.90;65.90;9.90;101894.00;;;;5011718;28;20239;-74
2024/03/06 07:00:11;;;;;;;21.65;13.40;;;7.90;66.80;10.00;101894.00;;;;5011575;28;20416;-78
2024/03/06 07:02:39;;;;;;;22.95;14.00;;;8.00;66.20;10.10;101904.00;;;;5003573;28;20628;-75
2024/03/06 07:05:08;;;;;;;19.67;13.63;;;8.10;66.40;10.10;101899.00;;;;5006784;28;20197;-74
2024/03/06 07:07:35;;;;;;;18.98;13.57;;;8.10;66.40;10.20;101899.00;;;;5002741;28;20217;-74
2024/03/06 07:10:03;;;;;;;20.58;11.98;;;8.20;66.60;10.30;101900.00;;;;5001886;28;20228;-72
2024/03/06 07:12:31;;;;;;;41.05;12.75;;;8.20;66.50;10.40;101912.00;;;;5000675;28;20202;-72
2024/03/06 07:15:00;;;;;;;20.92;12.65;;;8.30;66.60;10.40;101912.00;;;;5005262;28;21047;-74
2024/03/06 07:17:27;;;;;;;15.82;11.88;;;8.40;66.60;10.50;101918.00;;;;4996285;28;20686;-74
2024/03/06 07:19:54;;;;;;;18.15;12.18;;;8.50;66.70;10.60;101920.00;;;;4997999;28;20227;-74
2024/03/06 07:22:21;;;;;;;18.10;12.77;;;8.50;66.70;10.60;101919.00;;;;5009782;28;20211;-74
2024/03/06 07:24:49;;;;;;;18.77;12.00;;;8.60;66.70;10.70;101922.00;;;;4998437;28;20193;-74
2024/03/06 07:27:18;;;;;;;22.20;12.77;;;8.70;66.80;10.80;101927.00;;;;5004657;28;20322;-74
2024/03/06 07:29:45;;;;;;;16.33;11.73;;;8.70;66.80;10.80;101935.00;;;;5006288;28;20249;-74
2024/03/06 07:32:13;;;;;;;20.98;13.00;;;8.80;66.80;10.90;101926.00;;;;5004611;28;20714;-73
2024/03/06 07:34:40;;;;;;;30.67;12.55;;;8.90;66.80;11.00;101936.00;;;;5009264;28;20288;-72
2024/03/06 07:37:08;;;;;;;16.55;11.27;;;9.00;66.80;11.10;101944.00;;;;5011672;28;20301;-72
2024/03/06 07:39:35;;;;;;;18.98;12.57;;;9.00;66.70;11.10;101946.00;;;;5011214;28;20224;-73
2024/03/06 07:42:02;;;;;;;21.92;11.93;;;9.10;66.80;11.20;101944.00;;;;5011303;28;20201;-73
2024/03/06 07:44:29;;;;;;;24.00;12.23;;;9.10;66.70;11.30;101943.00;;;;5011039;28;20259;-72
2024/03/06 07:46:56;;;;;;;21.98;11.63;;;9.20;66.70;11.30;101946.00;;;;5011918;28;20275;-73
2024/03/06 07:49:25;;;;;;;17.98;11.63;;;9.30;66.70;11.40;101950.00;;;;5011350;28;20228;-73
2024/03/06 07:51:52;;;;;;;27.95;12.98;;;9.30;66.60;11.40;101944.00;;;;5019957;28;20283;-83
2024/03/06 07:54:19;;;;;;;19.10;11.55;;;9.40;66.70;11.50;101953.00;;;;4998455;28;20280;-82
2024/03/06 07:56:46;;;;;;;18.13;11.73;;;9.40;66.60;11.50;101952.00;;;;5010260;28;20292;-83
2024/03/06 07:59:15;;;;;;;15.70;11.20;;;9.50;66.70;11.60;101958.00;;;;5011751;28;20288;-83
2024/03/06 08:01:42;;;;;;;14.27;11.57;;;9.60;66.70;11.60;101960.00;;;;5011100;28;20204;-83
2024/03/06 08:04:09;;;;;;;18.63;12.02;;;9.60;66.80;11.70;101968.00;;;;5010989;28;20224;-84
2024/03/06 08:06:38;;;;;;;17.45;11.43;;;9.60;66.80;11.70;101961.00;;;;5013141;28;20197;-83
2024/03/06 08:09:06;;;;;;;19.58;11.77;;;9.70;66.90;11.80;101967.00;;;;5014523;28;20224;-83
2024/03/06 08:11:34;;;;;;;16.83;11.93;;;9.80;66.90;11.80;101964.00;;;;5011364;28;20248;-82
2024/03/06 08:14:02;;;;;;;20.15;11.02;;;9.80;66.70;11.90;101963.00;;;;5010666;28;20204;-81
2024/03/06 08:16:30;;;;;;;18.20;11.90;;;9.90;66.80;12.00;101967.00;;;;5006675;28;20573;-81
2024/03/06 08:18:59;;;;;;;21.45;12.52;;;9.90;66.90;12.00;101972.00;;;;5005841;28;20205;-80
2024/03/06 08:21:26;;;;;;;15.68;11.85;;;10.00;66.80;12.10;101969.00;;;;5001729;28;20194;-81
2024/03/06 08:23:54;;;;;;;21.77;11.25;;;10.00;66.80;12.10;101971.00;;;;5008543;28;20231;-80
2024/03/06 08:26:23;;;;;;;15.20;11.20;;;10.10;67.50;12.20;101984.00;;;;5011624;28;20207;-82
2024/03/06 08:28:51;;;;;;;15.50;11.40;;;10.10;66.70;12.30;101990.00;;;;5007172;28;20215;-81
2024/03/06 08:31:18;;;;;;;15.27;10.75;;;10.20;66.80;12.30;101989.00;;;;5013366;28;20262;-82
2024/03/06 08:33:45;;;;;;;19.63;11.82;;;10.30;66.90;12.40;101992.00;;;;5013200;28;20693;-75
2024/03/06 08:36:13;;;;;;;13.90;11.40;;;10.30;66.90;12.50;102004.00;;;;5010285;28;20279;-83
2024/03/06 08:38:41;;;;;;;19.95;12.52;;;10.40;66.90;12.50;101994.00;;;;5013444;28;20200;-81
2024/03/06 08:41:10;;;;;;;18.77;11.40;;;10.50;67.10;12.60;102003.00;;;;5015765;28;20231;-74
2024/03/06 08:43:37;;;;;;;17.67;12.07;;;10.50;66.90;12.70;102011.00;;;;5009267;28;20316;-83
2024/03/06 08:46:04;;;;;;;15.00;12.40;;;10.60;67.00;12.70;102011.00;;;;5014234;28;20201;-83
2024/03/06 08:48:31;;;;;;;16.55;12.15;;;10.70;67.00;12.80;102015.00;;;;5012724;28;20300;-82
2024/03/06 08:50:58;;;;;;;17.10;11.05;;;10.70;67.00;12.90;102020.00;;;;5012344;28;20283;-80
2024/03/06 08:53:26;;;;;;;14.82;11.13;;;10.80;67.00;12.90;102021.00;;;;5013961;28;20204;-83
2024/03/06 08:55:53;;;;;;;13.55;11.07;;;10.80;66.90;13.00;102022.00;;;;5014286;28;20308;-83
2024/03/06 08:58:21;;;;;;;11.93;10.23;;;10.90;67.00;13.10;102025.00;;;;5016553;28;21021;-82
2024/03/06 09:00:49;;;;;;;16.02;10.52;;;11.00;67.00;13.10;102028.00;;;;5011854;28;20280;-83
2024/03/06 09:03:16;;;;;;;11.50;10.13;;;11.00;67.60;13.20;102040.00;;;;5013244;28;20231;-83
2024/03/06 09:05:44;;;;;;;12.95;11.55;;;11.10;66.90;13.20;102032.00;;;;5013372;28;20713;-83
2024/03/06 09:08:12;;;;;;;12.70;10.60;;;11.10;66.80;13.30;102044.00;;;;5012909;28;20307;-86
2024/03/06 09:10:39;;;;;;;12.02;10.57;;;11.20;66.70;13.40;102047.00;;;;5008453;28;20224;-85
2024/03/06 09:13:07;;;;;;;13.93;11.15;;;11.30;66.70;13.40;102045.00;;;;5011828;28;20284;-82
2024/03/06 09:15:35;;;;;;;11.25;9.70;;;11.30;66.50;13.40;102049.00;;;;5009882;28;20368;-84
2024/03/06 09:18:03;;;;;;;10.90;9.45;;;11.40;66.40;13.50;102052.00;;;;5013676;28;20268;-84
2024/03/06 09:20:31;;;;;;;11.55;9.95;;;11.40;66.40;13.50;102059.00;;;;5013215;28;20196;-83
2024/03/06 09:23:00;;;;;;;23.95;10.18;;;11.50;66.40;13.60;102060.00;;;;5011258;28;20201;-83
2024/03/06 09:25:27;;;;;;;12.98;10.70;;;11.50;66.30;13.60;102072.00;;;;5011132;28;20674;-80
2024/03/06 09:27:54;;;;;;;11.88;9.85;;;11.50;66.10;13.70;102067.00;;;;5009834;28;20311;-84
2024/03/06 09:30:21;;;;;;;11.68;10.07;;;11.60;66.10;13.70;102068.00;;;;5011002;28;20201;-85
2024/03/06 09:32:50;;;;;;;15.05;10.40;;;11.70;66.10;13.80;102074.00;;;;5017492;28;20290;-84
2024/03/06 09:35:17;;;;;;;12.07;9.95;;;11.70;66.10;13.80;102078.00;;;;5012555;28;20196;-85
2024/03/06 09:37:47;;;;;;;12.25;10.48;;;11.70;66.10;13.90;102077.00;;;;5013280;28;20197;-85
2024/03/06 09:40:22;;;;;;;13.77;10.57;;;11.80;66.10;13.90;102089.00;;;;5012787;28;20231;-83
2024/03/06 09:42:50;;;;;;;12.18;10.20;;;11.80;66.20;14.00;102083.00;;;;5013326;28;20201;-82
2024/03/06 09:45:17;;;;;;;13.57;11.38;;;11.90;66.10;14.10;102092.00;;;;5007699;28;20225;-85
2024/03/06 09:47:45;;;;;;;11.57;10.18;;;11.90;66.00;14.10;102089.00;;;;5005612;28;20543;-84
2024/03/06 09:50:22;;;;;;;12.85;11.50;;;12.00;65.90;14.10;102095.00;;;;5003833;28;20208;-84
2024/03/06 09:52:52;;;;;;;13.43;11.02;;;12.10;66.00;14.20;102093.00;;;;5001834;28;20658;-88
2024/03/06 09:55:20;;;;;;;11.57;10.20;;;12.10;65.90;14.30;102095.00;;;;5004205;28;20200;-83
2024/03/06 09:57:48;;;;;;;12.32;10.98;;;12.20;65.80;14.30;102099.00;;;;5004063;28;20267;-86
2024/03/06 10:00:16;;;;;;;12.85;11.05;;;12.20;65.90;14.40;102099.00;;;;5009549;28;20204;-86
2024/03/06 10:02:55;;;;;;;13.48;11.20;;;12.30;65.90;14.40;102103.00;;;;5004275;28;20229;-84
2024/03/06 10:05:24;;;;;;;11.35;10.15;;;12.30;65.90;14.50;102105.00;;;;5000676;28;20758;-83
2024/03/06 10:07:52;;;;;;;11.70;10.30;;;12.40;65.90;14.50;102109.00;;;;5004266;28;20328;-84
2024/03/06 10:10:22;;;;;;;13.90;10.48;;;12.40;65.70;14.60;102102.00;;;;5006299;28;20659;-84
2024/03/06 10:12:50;;;;;;;12.85;9.70;;;12.50;65.60;14.60;102106.00;;;;4999242;28;20208;-83
2024/03/06 10:15:17;;;;;;;13.02;10.30;;;12.50;65.50;14.70;102106.00;;;;5004499;28;20198;-80
2024/03/06 10:17:46;;;;;;;11.55;10.18;;;12.60;65.50;14.80;102108.00;;;;4999006;28;20215;-84
2024/03/06 10:20:27;;;;;;;12.85;10.73;;;12.60;65.50;14.80;102107.00;;;;5009030;28;20605;-81
2024/03/06 10:22:55;;;;;;;13.27;11.07;;;12.70;65.60;14.90;102128.00;;;;5009366;28;20194;-85
2024/03/06 10:25:23;;;;;;;13.90;10.85;;;12.80;65.60;15.00;102117.00;;;;5012369;28;20255;-83
2024/03/06 10:28:06;;;;;;;11.93;10.63;;;12.80;65.50;14.90;102128.00;;;;5011377;28;20248;-85
2024/03/06 10:30:35;;;;;;;13.32;10.63;;;12.90;65.50;15.10;102122.00;;;;5012283;28;20544;-84
2024/03/06 10:33:04;;;;;;;12.75;10.65;;;12.90;65.60;15.20;102122.00;;;;5011227;28;20197;-85
2024/03/06 10:35:33;;;;;;;12.32;10.23;;;13.00;66.40;15.20;102121.00;;;;5012367;28;20204;-84
2024/03/06 10:38:03;;;;;;;13.23;11.63;;;13.10;65.50;15.20;102126.00;;;;5012668;28;20240;-84
2024/03/06 10:40:34;;;;;;;10.60;9.50;;;13.10;65.10;15.30;102128.00;;;;5017753;28;20220;-83
2024/03/06 10:43:02;;;;;;;11.80;10.35;;;13.20;65.00;15.40;102131.00;;;;4998616;28;21962;-85
2024/03/06 10:45:42;;;;;;;13.30;10.30;;;13.20;65.20;15.40;102126.00;;;;5007411;28;20698;-86